createdAt,value
2023-02-15T00:00:34.925Z,1.83
2023-02-15T00:04:23.118Z,1.80
2023-02-15T00:08:06.076Z,1.80
2023-02-15T00:11:51.965Z,1.78
2023-02-15T00:15:34.619Z,1.73
2023-02-15T00:19:19.225Z,1.73
2023-02-15T00:23:01.866Z,1.70
2023-02-15T00:26:47.263Z,1.65
2023-02-15T00:30:32.606Z,1.63
2023-02-15T00:34:17.192Z,1.62
2023-02-15T00:37:59.846Z,1.59
2023-02-15T00:41:42.745Z,1.50
2023-02-15T00:45:25.407Z,1.55
2023-02-15T00:49:09.487Z,1.53
2023-02-15T00:52:52.190Z,1.56
2023-02-15T00:56:34.890Z,1.57
2023-02-15T01:00:17.986Z,1.59
2023-02-15T01:04:00.713Z,1.54
2023-02-15T01:07:44.792Z,1.52
2023-02-15T01:11:27.388Z,1.53
2023-02-15T01:15:10.492Z,1.49
2023-02-15T01:18:53.244Z,1.43
2023-02-15T01:22:35.903Z,1.43
2023-02-15T01:26:20.171Z,1.38
2023-02-15T01:30:03.061Z,1.38
2023-02-15T01:33:48.488Z,1.37
2023-02-15T01:37:32.227Z,1.36
2023-02-15T01:41:28.624Z,1.32
2023-02-15T01:45:21.761Z,1.31
2023-02-15T01:49:09.877Z,1.24
2023-02-15T01:52:55.139Z,1.20
2023-02-15T01:56:39.972Z,1.17
2023-02-15T02:00:24.677Z,1.15
2023-02-15T02:04:13.263Z,1.12
2023-02-15T02:07:58.661Z,1.05
2023-02-15T02:11:41.535Z,0.97
2023-02-15T02:15:29.363Z,0.93
2023-02-15T02:19:36.966Z,0.91
2023-02-15T02:23:29.184Z,0.87
2023-02-15T02:27:31.272Z,0.81
2023-02-15T02:31:39.955Z,0.80
2023-02-15T02:35:30.626Z,0.76
2023-02-15T02:39:23.478Z,0.71
2023-02-15T02:43:09.697Z,0.72
2023-02-15T02:46:54.517Z,0.74
2023-02-15T02:50:41.476Z,0.71
2023-02-15T02:54:24.232Z,0.68
2023-02-15T02:58:11.514Z,0.60
2023-02-15T03:01:56.521Z,0.55
2023-02-15T03:05:43.936Z,0.52
2023-02-15T03:09:35.494Z,0.54
2023-02-15T03:13:18.699Z,0.56
2023-02-15T03:17:02.165Z,0.56
2023-02-15T03:20:46.339Z,0.56
2023-02-15T03:24:33.200Z,0.42
2023-02-15T03:28:20.472Z,0.22
2023-02-15T03:32:06.280Z,0.21
2023-02-15T03:35:54.638Z,0.19
2023-02-15T03:39:41.707Z,0.18
2023-02-15T03:43:28.827Z,0.20
2023-02-15T03:47:15.751Z,0.25
2023-02-15T03:51:21.681Z,0.22
2023-02-15T03:55:04.386Z,0.19
2023-02-15T03:59:04.648Z,0.12
2023-02-15T04:03:02.789Z,0.14
2023-02-15T04:06:46.856Z,0.17
2023-02-15T04:10:47.042Z,0.13
2023-02-15T04:14:47.181Z,0.13
2023-02-15T04:18:47.443Z,0.10
2023-02-15T04:22:49.069Z,0.07
2023-02-15T04:26:31.778Z,0.00
2023-02-15T04:30:15.844Z,-0.14
2023-02-15T04:33:58.520Z,-0.23
2023-02-15T04:37:43.192Z,-0.23
2023-02-15T04:41:25.921Z,-0.18
2023-02-15T04:45:09.418Z,-0.12
2023-02-15T04:48:52.109Z,-0.07
2023-02-15T04:52:34.829Z,-0.03
2023-02-15T04:56:18.861Z,0.04
2023-02-15T05:00:01.553Z,0.07
2023-02-15T05:03:44.242Z,0.06
2023-02-15T05:07:26.948Z,0.06
2023-02-15T05:11:09.626Z,0.08
2023-02-15T05:14:53.652Z,0.10
2023-02-15T05:18:36.334Z,0.07
2023-02-15T05:22:19.002Z,0.02
2023-02-15T05:26:18.984Z,0.03
2023-02-15T05:30:03.346Z,0.02
2023-02-15T05:33:46.351Z,-0.06
2023-02-15T05:37:29.033Z,-0.07
2023-02-15T05:41:13.086Z,-0.04
2023-02-15T05:44:55.779Z,0.00
2023-02-15T05:48:39.853Z,0.04
2023-02-15T05:52:22.548Z,0.08
2023-02-15T05:56:07.866Z,0.10
2023-02-15T05:59:50.621Z,0.05
2023-02-15T06:03:33.351Z,-0.03
2023-02-15T06:07:17.381Z,-0.03
2023-02-15T06:11:00.039Z,-0.05
2023-02-15T06:14:42.692Z,-0.10
2023-02-15T06:18:25.386Z,-0.12
2023-02-15T06:22:09.882Z,-0.13
2023-02-15T06:25:53.893Z,-0.12
2023-02-15T06:29:36.611Z,-0.18
2023-02-15T06:33:19.353Z,-0.16
2023-02-15T06:37:02.013Z,-0.18
2023-02-15T06:40:44.695Z,-0.28
2023-02-15T06:44:28.819Z,-0.23
2023-02-15T06:48:12.180Z,-0.18
2023-02-15T06:51:54.838Z,-0.12
2023-02-15T06:55:39.515Z,-0.10
2023-02-15T06:59:22.269Z,-0.05
2023-02-15T07:03:06.412Z,0.04
2023-02-15T07:06:49.071Z,0.09
2023-02-15T07:10:31.896Z,0.10
2023-02-15T07:14:14.679Z,0.07
2023-02-15T07:17:57.382Z,0.10
2023-02-15T07:21:41.468Z,0.11
2023-02-15T07:25:26.865Z,0.14
2023-02-15T07:29:12.509Z,0.13
2023-02-15T07:33:15.330Z,0.10
2023-02-15T07:36:59.306Z,0.11
2023-02-15T07:40:41.960Z,0.20
2023-02-15T07:44:24.660Z,0.31
2023-02-15T07:48:08.472Z,0.35
2023-02-15T07:51:51.181Z,0.36
2023-02-15T07:55:35.198Z,0.34
2023-02-15T07:59:17.888Z,0.37
2023-02-15T08:03:15.852Z,0.42
2023-02-15T08:06:58.603Z,0.54
2023-02-15T08:10:59.460Z,0.60
2023-02-15T08:14:42.202Z,0.69
2023-02-15T08:18:24.966Z,0.75
2023-02-15T08:22:08.868Z,0.82
2023-02-15T08:25:52.887Z,0.93
2023-02-15T08:29:37.217Z,1.00
2023-02-15T08:33:19.941Z,0.99
2023-02-15T08:37:02.920Z,1.05
2023-02-15T08:40:45.656Z,1.13
2023-02-15T08:44:30.178Z,1.19
2023-02-15T08:48:15.430Z,1.20
2023-02-15T08:51:58.177Z,1.26
2023-02-15T08:55:41.916Z,1.26
2023-02-15T08:59:25.920Z,1.36
2023-02-15T09:03:09.950Z,1.39
2023-02-15T09:06:53.154Z,1.42
2023-02-15T09:10:38.745Z,1.41
2023-02-15T09:14:24.370Z,1.41
2023-02-15T09:18:08.557Z,1.41
2023-02-15T09:21:53.146Z,1.40
2023-02-15T09:25:36.884Z,1.43
2023-02-15T09:29:20.564Z,1.50
2023-02-15T09:33:04.933Z,1.55
2023-02-15T09:36:50.748Z,1.62
2023-02-15T09:40:42.779Z,1.68
2023-02-15T09:44:35.899Z,1.79
2023-02-15T09:48:32.943Z,1.86
2023-02-15T09:52:38.501Z,2.02
2023-02-15T09:56:30.386Z,2.07
2023-02-15T10:00:21.140Z,2.18
2023-02-15T10:04:19.977Z,2.29
2023-02-15T10:08:20.968Z,2.34
2023-02-15T10:12:14.970Z,2.43
2023-02-15T10:16:10.527Z,2.52
2023-02-15T10:20:05.910Z,2.63
2023-02-15T10:23:59.305Z,2.70
2023-02-15T10:27:47.743Z,2.81
2023-02-15T10:31:35.576Z,2.95
2023-02-15T10:35:22.607Z,3.03
2023-02-15T10:39:09.475Z,3.14
2023-02-15T10:43:15.126Z,3.27
2023-02-15T10:47:29.257Z,3.39
2023-02-15T10:51:16.688Z,3.49
2023-02-15T10:55:06.785Z,3.59
2023-02-15T10:58:59.793Z,3.73
2023-02-15T11:03:02.501Z,3.92
2023-02-15T11:06:52.195Z,4.06
2023-02-15T11:10:41.297Z,4.16
2023-02-15T11:14:32.730Z,4.25
2023-02-15T11:18:17.823Z,4.35
2023-02-15T11:22:03.613Z,4.47
2023-02-15T11:25:48.693Z,4.62
2023-02-15T11:29:34.974Z,4.78
2023-02-15T11:33:19.655Z,4.94
2023-02-15T11:37:07.047Z,5.11
2023-02-15T11:40:51.110Z,5.31
2023-02-15T11:44:37.479Z,5.48
2023-02-15T11:48:20.174Z,5.64
2023-02-15T11:52:05.046Z,5.85
2023-02-15T11:55:49.378Z,6.01
2023-02-15T11:59:37.682Z,6.20
2023-02-15T12:03:29.270Z,6.42
2023-02-15T12:07:16.862Z,6.60
2023-02-15T12:11:03.044Z,6.76
2023-02-15T12:14:51.016Z,6.95
2023-02-15T12:18:39.785Z,7.11
2023-02-15T12:22:25.080Z,7.29
2023-02-15T12:26:07.887Z,7.47
2023-02-15T12:29:53.990Z,7.67
2023-02-15T12:33:37.666Z,7.84
2023-02-15T12:37:23.916Z,8.03
2023-02-15T12:41:13.067Z,8.23
2023-02-15T12:45:02.070Z,8.48
2023-02-15T12:48:44.782Z,8.74
2023-02-15T12:52:27.683Z,8.97
2023-02-15T12:56:11.786Z,9.20
2023-02-15T12:59:56.688Z,9.39
2023-02-15T13:03:48.833Z,9.59
2023-02-15T13:07:33.166Z,9.87
2023-02-15T13:11:22.583Z,10.17
2023-02-15T13:15:24.367Z,10.39
2023-02-15T13:19:13.389Z,10.62
2023-02-15T13:23:01.757Z,10.89
2023-02-15T13:26:46.146Z,11.07
2023-02-15T13:30:33.714Z,11.22
2023-02-15T13:34:22.009Z,11.46
2023-02-15T13:38:44.459Z,11.71
2023-02-15T13:42:29.888Z,11.93
2023-02-15T13:46:21.695Z,12.21
2023-02-15T13:50:31.582Z,12.44
2023-02-15T13:54:30.583Z,12.67
2023-02-15T13:58:33.833Z,12.85
2023-02-15T14:02:38.826Z,13.01
2023-02-15T14:06:42.634Z,13.15
2023-02-15T14:10:42.299Z,13.26
2023-02-15T14:14:52.151Z,13.43
2023-02-15T14:18:38.338Z,13.53
2023-02-15T14:22:28.459Z,13.67
2023-02-15T14:26:17.497Z,13.73
2023-02-15T14:30:02.135Z,13.83
2023-02-15T14:33:50.100Z,13.90
2023-02-15T14:37:43.821Z,13.96
2023-02-15T14:41:32.075Z,13.93
2023-02-15T14:45:22.358Z,14.00
2023-02-15T14:49:09.214Z,14.04
2023-02-15T14:53:25.418Z,14.04
2023-02-15T14:57:27.516Z,14.08
2023-02-15T15:01:11.898Z,14.11
2023-02-15T15:05:01.091Z,14.16
2023-02-15T15:08:43.860Z,14.18
2023-02-15T15:12:40.983Z,14.15
2023-02-15T15:16:50.084Z,14.15
2023-02-15T15:20:49.587Z,14.14
2023-02-15T15:24:54.405Z,14.16
2023-02-15T15:28:59.969Z,14.12
2023-02-15T15:32:47.256Z,14.04
2023-02-15T15:36:52.670Z,13.97
2023-02-15T15:40:44.783Z,13.84
2023-02-15T15:44:58.475Z,13.68
2023-02-15T15:48:42.546Z,13.53
2023-02-15T15:52:25.535Z,13.40
2023-02-15T15:56:12.918Z,13.20
2023-02-15T15:59:59.607Z,13.03
2023-02-15T16:03:50.975Z,12.80
2023-02-15T16:07:33.658Z,12.53
2023-02-15T16:11:19.174Z,12.30
2023-02-15T16:15:08.845Z,12.07
2023-02-15T16:18:52.219Z,11.80
2023-02-15T16:22:35.100Z,11.50
2023-02-15T16:26:23.010Z,11.16
2023-02-15T16:30:27.919Z,10.68
2023-02-15T16:34:16.697Z,10.27
2023-02-15T16:37:59.559Z,9.88
2023-02-15T16:41:46.907Z,9.49
2023-02-15T16:45:31.868Z,9.01
2023-02-15T16:49:18.434Z,8.67
2023-02-15T16:53:01.508Z,8.39
2023-02-15T16:56:47.411Z,8.07
2023-02-15T17:00:33.897Z,7.84
2023-02-15T17:04:28.908Z,7.60
2023-02-15T17:08:17.478Z,7.40
2023-02-15T17:12:02.947Z,7.19
2023-02-15T17:16:16.671Z,6.92
2023-02-15T17:19:59.462Z,6.76
2023-02-15T17:23:43.784Z,6.62
2023-02-15T17:27:28.206Z,6.49
2023-02-15T17:31:15.634Z,6.36
2023-02-15T17:35:09.298Z,6.29
2023-02-15T17:39:04.941Z,6.27
2023-02-15T17:42:47.641Z,6.12
2023-02-15T17:46:35.528Z,5.98
2023-02-15T17:50:21.801Z,5.75
2023-02-15T17:54:22.375Z,5.65
2023-02-15T17:58:08.425Z,5.55
2023-02-15T18:02:09.848Z,5.40
2023-02-15T18:06:10.192Z,5.26
2023-02-15T18:10:10.567Z,5.09
2023-02-15T18:13:53.194Z,4.97
2023-02-15T18:17:39.599Z,4.91
2023-02-15T18:21:22.322Z,4.87
2023-02-15T18:25:05.343Z,4.82
2023-02-15T18:28:48.166Z,4.71
2023-02-15T18:32:34.313Z,4.63
2023-02-15T18:36:23.691Z,4.54
2023-02-15T18:40:07.540Z,4.47
2023-02-15T18:43:51.805Z,4.40
2023-02-15T18:47:34.477Z,4.31
2023-02-15T18:51:22.886Z,4.22
2023-02-15T18:55:11.486Z,4.13
2023-02-15T18:58:54.280Z,4.06
2023-02-15T19:02:36.999Z,4.03
2023-02-15T19:06:23.076Z,3.96
2023-02-15T19:10:07.731Z,3.91
2023-02-15T19:13:51.204Z,3.89
2023-02-15T19:17:33.904Z,3.81
2023-02-15T19:21:18.497Z,3.74
2023-02-15T19:25:04.874Z,3.64
2023-02-15T19:28:47.768Z,3.57
2023-02-15T19:32:30.582Z,3.56
2023-02-15T19:36:17.785Z,3.48
2023-02-15T19:40:02.997Z,3.43
2023-02-15T19:43:53.045Z,3.34
2023-02-15T19:47:35.715Z,3.28
2023-02-15T19:51:19.250Z,3.31
2023-02-15T19:55:03.316Z,3.28
2023-02-15T19:58:45.997Z,3.22
2023-02-15T20:02:28.617Z,3.17
2023-02-15T20:06:14.981Z,3.12
2023-02-15T20:09:57.706Z,3.11
2023-02-15T20:13:41.929Z,3.06
2023-02-15T20:17:24.541Z,3.00
2023-02-15T20:21:10.697Z,2.99
2023-02-15T20:24:55.577Z,3.03
2023-02-15T20:28:38.258Z,3.03
2023-02-15T20:32:22.573Z,3.03
2023-02-15T20:36:05.933Z,2.95
2023-02-15T20:39:48.573Z,2.89
2023-02-15T20:43:31.360Z,2.89
2023-02-15T20:47:14.053Z,2.86
2023-02-15T20:50:59.473Z,2.80
2023-02-15T20:54:42.178Z,2.82
2023-02-15T20:58:26.478Z,2.86
2023-02-15T21:02:16.965Z,2.90
2023-02-15T21:06:01.793Z,2.85
2023-02-15T21:09:44.620Z,2.84
2023-02-15T21:13:28.907Z,2.81
2023-02-15T21:17:12.488Z,2.78
2023-02-15T21:20:57.293Z,2.75
2023-02-15T21:24:45.719Z,2.72
2023-02-15T21:28:29.448Z,2.68
2023-02-15T21:32:12.220Z,2.67
2023-02-15T21:35:56.917Z,2.64
2023-02-15T21:39:41.026Z,2.59
2023-02-15T21:43:43.260Z,2.46
2023-02-15T21:47:47.532Z,2.36
2023-02-15T21:51:48.530Z,2.30
2023-02-15T21:55:33.127Z,2.25
2023-02-15T21:59:17.378Z,2.25
2023-02-15T22:03:00.896Z,2.21
2023-02-15T22:06:43.751Z,2.14
2023-02-15T22:10:28.091Z,2.08
2023-02-15T22:14:37.689Z,2.07
2023-02-15T22:18:22.657Z,2.06
2023-02-15T22:22:05.400Z,2.03
2023-02-15T22:25:54.589Z,2.02
2023-02-15T22:29:38.601Z,1.97
2023-02-15T22:33:26.469Z,1.94
2023-02-15T22:37:09.835Z,1.90
2023-02-15T22:40:53.614Z,1.92
2023-02-15T22:44:37.824Z,1.92
2023-02-15T22:48:23.400Z,1.89
2023-02-15T22:52:09.764Z,1.89
2023-02-15T22:55:54.503Z,1.89
2023-02-15T22:59:38.761Z,1.89
2023-02-15T23:03:24.041Z,1.81
2023-02-15T23:07:10.014Z,1.79
2023-02-15T23:10:56.201Z,1.77
2023-02-15T23:14:40.213Z,1.77
2023-02-15T23:18:27.487Z,1.75
2023-02-15T23:22:14.257Z,1.72
2023-02-15T23:25:57.311Z,1.71
2023-02-15T23:29:41.419Z,1.71
2023-02-15T23:33:26.323Z,1.70
2023-02-15T23:37:19.071Z,1.73
2023-02-15T23:41:23.025Z,1.73
2023-02-15T23:45:23.975Z,1.70
2023-02-15T23:49:14.858Z,1.65
2023-02-15T23:52:58.222Z,1.58
2023-02-15T23:56:41.312Z,1.56
